createdAt,value
2022-12-23T00:00:41.565Z,12.07
2022-12-23T00:03:09.566Z,12.11
2022-12-23T00:05:38.817Z,12.08
2022-12-23T00:08:08.209Z,12.09
2022-12-23T00:10:38.418Z,12.00
2022-12-23T00:13:06.633Z,12.10
2022-12-23T00:15:34.767Z,12.08
2022-12-23T00:18:03.844Z,12.00
2022-12-23T00:20:32.564Z,11.99
2022-12-23T00:23:00.176Z,11.99
2022-12-23T00:25:29.145Z,11.91
2022-12-23T00:27:56.933Z,12.06
2022-12-23T00:30:25.101Z,12.11
2022-12-23T00:32:54.129Z,12.17
2022-12-23T00:35:21.740Z,12.20
2022-12-23T00:37:51.378Z,12.27
2022-12-23T00:40:19.325Z,12.21
2022-12-23T00:42:48.294Z,12.19
2022-12-23T00:45:16.221Z,12.13
2022-12-23T00:47:45.208Z,12.24
2022-12-23T00:50:12.760Z,12.29
2022-12-23T00:52:41.821Z,12.31
2022-12-23T00:55:09.777Z,12.32
2022-12-23T00:57:37.509Z,12.27
2022-12-23T01:00:09.545Z,12.26
2022-12-23T01:02:39.703Z,12.14
2022-12-23T01:05:11.058Z,12.29
2022-12-23T01:07:38.687Z,12.30
2022-12-23T01:10:06.982Z,12.29
2022-12-23T01:12:34.599Z,12.20
2022-12-23T01:15:02.229Z,12.08
2022-12-23T01:17:31.595Z,12.11
2022-12-23T01:19:59.237Z,12.22
2022-12-23T01:22:28.003Z,12.10
2022-12-23T01:24:55.619Z,12.26
2022-12-23T01:27:23.402Z,12.21
2022-12-23T01:29:51.050Z,12.19
2022-12-23T01:32:18.955Z,12.01
2022-12-23T01:34:47.997Z,12.00
2022-12-23T01:37:15.677Z,12.04
2022-12-23T01:39:46.298Z,11.90
2022-12-23T01:42:14.698Z,12.02
2022-12-23T01:44:55.719Z,12.07
2022-12-23T01:47:31.384Z,12.17
2022-12-23T01:50:06.230Z,12.22
2022-12-23T01:52:40.851Z,12.29
2022-12-23T01:55:09.951Z,12.28
2022-12-23T01:57:42.724Z,12.25
2022-12-23T02:00:11.395Z,12.20
2022-12-23T02:02:42.651Z,12.19
2022-12-23T02:05:12.287Z,12.37
2022-12-23T02:07:40.472Z,12.33
2022-12-23T02:10:09.377Z,12.43
2022-12-23T02:12:48.562Z,12.43
2022-12-23T02:15:29.968Z,12.49
2022-12-23T02:18:25.271Z,12.52
2022-12-23T02:21:16.564Z,12.44
2022-12-23T02:24:20.662Z,12.46
2022-12-23T02:27:05.985Z,12.37
2022-12-23T02:30:06.582Z,12.49
2022-12-23T02:32:50.944Z,12.44
2022-12-23T02:35:30.913Z,12.45
2022-12-23T02:38:09.045Z,12.28
2022-12-23T02:40:44.254Z,12.34
2022-12-23T02:43:19.401Z,12.31
2022-12-23T02:45:56.754Z,12.40
2022-12-23T02:48:35.555Z,12.50
2022-12-23T02:51:07.410Z,12.54
2022-12-23T02:53:43.087Z,12.35
2022-12-23T02:56:15.078Z,12.41
2022-12-23T02:58:55.591Z,12.44
2022-12-23T03:01:27.683Z,12.48
2022-12-23T03:03:56.979Z,12.35
2022-12-23T03:06:31.475Z,12.46
2022-12-23T03:09:03.576Z,12.58
2022-12-23T03:11:43.205Z,12.56
2022-12-23T03:14:32.151Z,12.61
2022-12-23T03:17:17.818Z,12.35
2022-12-23T03:19:54.105Z,12.44
2022-12-23T03:22:32.385Z,12.13
2022-12-23T03:25:08.734Z,12.22
2022-12-23T03:27:43.114Z,11.90
2022-12-23T03:30:14.866Z,11.81
2022-12-23T03:32:49.437Z,11.67
2022-12-23T03:35:28.017Z,11.46
2022-12-23T03:37:59.306Z,11.42
2022-12-23T03:40:35.257Z,11.59
2022-12-23T03:43:09.093Z,11.48
2022-12-23T03:45:43.209Z,11.26
2022-12-23T03:48:23.010Z,11.12
2022-12-23T03:50:57.711Z,11.03
2022-12-23T03:53:31.954Z,10.97
2022-12-23T03:56:06.165Z,11.11
2022-12-23T03:58:39.951Z,11.28
2022-12-23T04:01:18.207Z,11.50
2022-12-23T04:04:00.704Z,11.17
2022-12-23T04:06:41.635Z,11.20
2022-12-23T04:09:15.398Z,11.44
2022-12-23T04:11:46.686Z,11.35
2022-12-23T04:14:17.551Z,11.42
2022-12-23T04:16:46.050Z,11.40
2022-12-23T04:19:13.765Z,11.54
2022-12-23T04:21:46.301Z,11.70
2022-12-23T04:24:14.338Z,11.55
2022-12-23T04:26:42.228Z,11.70
2022-12-23T04:29:09.951Z,11.83
2022-12-23T04:31:37.771Z,12.03
2022-12-23T04:34:05.539Z,12.02
2022-12-23T04:36:33.260Z,12.13
2022-12-23T04:39:02.326Z,12.15
2022-12-23T04:41:31.260Z,12.20
2022-12-23T04:44:03.320Z,12.24
2022-12-23T04:46:31.095Z,12.25
2022-12-23T04:48:58.791Z,12.30
2022-12-23T04:51:26.566Z,12.28
2022-12-23T04:53:54.271Z,12.09
2022-12-23T04:56:23.260Z,12.05
2022-12-23T04:58:52.462Z,11.99
2022-12-23T05:01:20.220Z,12.01
2022-12-23T05:03:47.880Z,12.26
2022-12-23T05:06:15.567Z,12.29
2022-12-23T05:08:44.564Z,12.01
2022-12-23T05:11:12.343Z,11.61
2022-12-23T05:13:41.337Z,11.61
2022-12-23T05:16:09.158Z,11.75
2022-12-23T05:18:36.814Z,11.58
2022-12-23T05:21:05.273Z,11.50
2022-12-23T05:23:33.283Z,11.66
2022-12-23T05:26:01.056Z,11.59
2022-12-23T05:28:29.502Z,11.32
2022-12-23T05:30:59.791Z,11.41
2022-12-23T05:33:28.129Z,11.36
2022-12-23T05:35:56.785Z,11.33
2022-12-23T05:38:25.196Z,11.27
2022-12-23T05:40:53.082Z,11.21
2022-12-23T05:43:20.934Z,11.24
2022-12-23T05:45:50.174Z,11.09
2022-12-23T05:48:19.299Z,11.22
2022-12-23T05:50:49.227Z,11.34
2022-12-23T05:53:18.320Z,11.40
2022-12-23T05:55:46.728Z,11.20
2022-12-23T05:58:14.502Z,11.02
2022-12-23T06:00:42.336Z,11.15
2022-12-23T06:03:10.937Z,11.36
2022-12-23T06:05:40.550Z,11.49
2022-12-23T06:08:08.234Z,11.22
2022-12-23T06:10:35.912Z,11.19
2022-12-23T06:13:03.591Z,11.31
2022-12-23T06:15:31.512Z,11.32
2022-12-23T06:18:01.468Z,11.13
2022-12-23T06:20:30.084Z,11.01
2022-12-23T06:22:59.257Z,11.21
2022-12-23T06:25:26.900Z,10.77
2022-12-23T06:27:54.547Z,10.84
2022-12-23T06:30:22.462Z,11.00
2022-12-23T06:32:50.386Z,10.94
2022-12-23T06:35:18.620Z,10.89
2022-12-23T06:37:46.212Z,10.89
2022-12-23T06:40:15.594Z,11.06
2022-12-23T06:42:43.216Z,11.16
2022-12-23T06:45:11.346Z,11.25
2022-12-23T06:47:39.159Z,11.25
2022-12-23T06:50:07.715Z,10.96
2022-12-23T06:52:35.587Z,11.02
2022-12-23T06:55:03.708Z,10.89
2022-12-23T06:57:32.797Z,10.66
2022-12-23T07:00:00.572Z,10.68
2022-12-23T07:02:28.320Z,10.98
2022-12-23T07:04:56.168Z,11.12
2022-12-23T07:07:23.796Z,10.72
2022-12-23T07:09:51.603Z,10.60
2022-12-23T07:12:19.267Z,10.56
2022-12-23T07:14:48.185Z,10.47
2022-12-23T07:17:16.064Z,10.66
2022-12-23T07:19:44.921Z,10.87
2022-12-23T07:22:12.533Z,10.82
2022-12-23T07:24:42.617Z,10.89
2022-12-23T07:27:10.321Z,11.13
2022-12-23T07:29:38.183Z,11.18
2022-12-23T07:32:07.327Z,10.99
2022-12-23T07:34:35.186Z,11.01
2022-12-23T07:37:02.852Z,11.16
2022-12-23T07:39:30.388Z,11.25
2022-12-23T07:44:45.600Z,11.12
2022-12-23T07:47:14.595Z,10.99
2022-12-23T07:49:42.606Z,10.92
2022-12-23T07:52:10.381Z,10.71
2022-12-23T07:54:38.077Z,10.69
2022-12-23T07:57:05.722Z,10.69
2022-12-23T07:59:33.259Z,10.83
2022-12-23T08:02:01.035Z,10.92
2022-12-23T08:04:30.237Z,11.14
2022-12-23T08:06:57.898Z,11.17
2022-12-23T08:09:25.505Z,11.14
2022-12-23T08:11:53.077Z,11.38
2022-12-23T08:14:20.618Z,11.65
2022-12-23T08:16:48.702Z,11.84
2022-12-23T08:19:16.365Z,11.90
2022-12-23T08:21:45.466Z,11.85
2022-12-23T08:24:14.417Z,11.99
2022-12-23T08:26:42.085Z,12.17
2022-12-23T08:29:09.718Z,12.42
2022-12-23T08:31:37.410Z,12.34
2022-12-23T08:34:05.114Z,12.45
2022-12-23T08:36:35.336Z,12.55
2022-12-23T08:39:07.345Z,12.61
2022-12-23T08:41:39.448Z,12.68
2022-12-23T08:44:07.654Z,12.65
2022-12-23T08:46:36.170Z,12.71
2022-12-23T08:49:04.588Z,12.76
2022-12-23T08:51:32.703Z,12.76
2022-12-23T08:54:01.804Z,12.90
2022-12-23T08:56:35.819Z,12.97
2022-12-23T08:59:04.280Z,13.00
2022-12-23T09:01:34.490Z,12.96
2022-12-23T09:04:03.021Z,13.01
2022-12-23T09:06:35.255Z,12.85
2022-12-23T09:09:06.032Z,12.85
2022-12-23T09:11:38.402Z,12.90
2022-12-23T09:14:07.297Z,12.84
2022-12-23T09:16:35.897Z,12.81
2022-12-23T09:19:06.970Z,12.87
2022-12-23T09:21:37.056Z,12.98
2022-12-23T09:24:06.686Z,12.86
2022-12-23T09:26:39.075Z,12.91
2022-12-23T09:29:08.411Z,12.77
2022-12-23T09:31:37.853Z,12.87
2022-12-23T09:34:06.845Z,12.98
2022-12-23T09:36:38.216Z,12.84
2022-12-23T09:39:06.394Z,12.87
2022-12-23T09:42:10.834Z,12.72
2022-12-23T09:44:52.338Z,12.73
2022-12-23T09:47:25.408Z,12.66
2022-12-23T09:50:19.071Z,12.50
2022-12-23T09:53:02.232Z,12.26
2022-12-23T09:55:46.495Z,12.43
2022-12-23T09:58:28.655Z,12.05
2022-12-23T10:01:13.124Z,12.26
2022-12-23T10:04:07.050Z,12.57
2022-12-23T10:06:41.448Z,12.76
2022-12-23T10:09:12.180Z,12.85
2022-12-23T10:11:45.367Z,13.01
2022-12-23T10:14:23.660Z,12.94
2022-12-23T10:16:58.275Z,13.09
2022-12-23T10:19:34.077Z,13.08
2022-12-23T10:22:04.450Z,13.19
2022-12-23T10:24:38.181Z,13.38
2022-12-23T10:27:18.200Z,13.37
2022-12-23T10:29:47.928Z,13.06
2022-12-23T10:32:29.997Z,13.16
2022-12-23T10:35:07.419Z,13.35
2022-12-23T10:37:48.017Z,13.35
2022-12-23T10:40:25.920Z,13.37
2022-12-23T10:43:08.239Z,13.46
2022-12-23T10:45:57.929Z,13.39
2022-12-23T10:48:51.889Z,13.46
2022-12-23T10:51:31.187Z,13.43
2022-12-23T10:54:06.846Z,13.15
2022-12-23T10:56:35.530Z,13.46
2022-12-23T10:59:05.608Z,13.64
2022-12-23T11:01:35.496Z,13.49
2022-12-23T11:04:13.349Z,13.59
2022-12-23T11:06:47.860Z,13.53
2022-12-23T11:09:22.349Z,13.48
2022-12-23T11:11:58.679Z,13.61
2022-12-23T11:14:35.029Z,13.50
2022-12-23T11:17:16.574Z,13.61
2022-12-23T11:19:46.575Z,13.67
2022-12-23T11:22:23.622Z,13.71
2022-12-23T11:24:52.846Z,13.70
2022-12-23T11:27:20.592Z,13.81
2022-12-23T11:29:52.065Z,13.75
2022-12-23T11:32:24.939Z,13.80
2022-12-23T11:34:56.395Z,13.65
2022-12-23T11:37:31.924Z,13.69
2022-12-23T11:40:00.206Z,13.50
2022-12-23T11:42:30.427Z,13.50
2022-12-23T11:45:00.563Z,13.28
2022-12-23T11:47:37.919Z,13.34
2022-12-23T11:50:29.933Z,13.26
2022-12-23T11:53:09.474Z,13.13
2022-12-23T11:55:44.424Z,13.25
2022-12-23T11:58:21.345Z,13.19
2022-12-23T12:00:56.536Z,13.20
2022-12-23T12:03:30.796Z,13.24
2022-12-23T12:06:03.947Z,13.30
2022-12-23T12:08:35.945Z,13.22
2022-12-23T12:11:13.543Z,13.22
2022-12-23T12:13:46.060Z,13.25
2022-12-23T12:16:35.191Z,13.29
2022-12-23T12:19:10.477Z,13.30
2022-12-23T12:21:42.600Z,13.39
2022-12-23T12:24:22.313Z,13.25
2022-12-23T12:26:57.665Z,13.29
2022-12-23T12:29:33.193Z,13.28
2022-12-23T12:32:03.755Z,13.36
2022-12-23T12:34:45.237Z,13.28
2022-12-23T12:37:26.814Z,13.13
2022-12-23T12:40:00.356Z,13.06
2022-12-23T12:42:38.008Z,13.06
2022-12-23T12:45:17.567Z,12.62
2022-12-23T12:48:10.310Z,13.04
2022-12-23T12:51:02.573Z,13.13
2022-12-23T12:53:33.503Z,13.24
2022-12-23T12:56:24.789Z,13.32
2022-12-23T12:58:52.528Z,13.36
2022-12-23T13:01:37.721Z,13.35
2022-12-23T13:04:41.401Z,13.39
2022-12-23T13:07:26.592Z,13.51
2022-12-23T13:10:05.345Z,13.62
2022-12-23T13:12:47.964Z,13.71
2022-12-23T13:15:23.997Z,13.79
2022-12-23T13:18:11.592Z,13.88
2022-12-23T13:20:48.427Z,13.99
2022-12-23T13:23:42.786Z,13.82
2022-12-23T13:26:21.667Z,13.82
2022-12-23T13:29:02.577Z,13.95
2022-12-23T13:31:48.698Z,14.08
2022-12-23T13:34:30.568Z,14.04
2022-12-23T13:37:13.434Z,14.11
2022-12-23T13:39:57.477Z,14.19
2022-12-23T13:42:32.413Z,14.11
2022-12-23T13:45:03.118Z,14.14
2022-12-23T13:47:49.544Z,14.10
2022-12-23T13:50:31.613Z,14.04
2022-12-23T13:53:18.994Z,14.00
2022-12-23T13:56:10.367Z,13.91
2022-12-23T13:58:43.588Z,13.81
2022-12-23T14:01:32.660Z,13.85
2022-12-23T14:04:32.838Z,13.90
2022-12-23T14:07:04.202Z,13.80
2022-12-23T14:09:36.802Z,13.74
2022-12-23T14:12:21.544Z,13.79
2022-12-23T14:15:21.503Z,13.51
2022-12-23T14:18:09.678Z,13.69
2022-12-23T14:20:50.190Z,13.51
2022-12-23T14:23:46.154Z,13.53
2022-12-23T14:26:39.151Z,13.72
2022-12-23T14:29:34.871Z,13.67
2022-12-23T14:32:02.842Z,13.65
2022-12-23T14:34:32.715Z,13.79
2022-12-23T14:37:35.721Z,13.75
2022-12-23T14:40:40.862Z,13.68
2022-12-23T14:43:32.099Z,13.64
2022-12-23T14:46:02.736Z,13.74
2022-12-23T14:52:34.534Z,13.51
2022-12-23T14:55:40.732Z,13.58
2022-12-23T14:58:26.372Z,13.70
2022-12-23T15:01:03.030Z,13.48
2022-12-23T15:03:40.295Z,13.61
2022-12-23T15:06:08.361Z,13.56
2022-12-23T15:08:41.140Z,13.60
2022-12-23T15:11:21.167Z,13.38
2022-12-23T15:13:52.022Z,13.45
2022-12-23T15:16:30.657Z,13.56
2022-12-23T15:19:02.446Z,13.65
2022-12-23T15:21:33.633Z,13.50
2022-12-23T15:24:01.652Z,13.65
2022-12-23T15:26:32.787Z,13.60
2022-12-23T15:29:01.112Z,13.55
2022-12-23T15:31:36.074Z,13.59
2022-12-23T15:34:16.837Z,13.75
2022-12-23T15:36:51.674Z,13.72
2022-12-23T15:39:32.220Z,13.80
2022-12-23T15:42:00.550Z,13.67
2022-12-23T15:44:36.619Z,13.83
2022-12-23T15:47:23.962Z,13.85
2022-12-23T15:49:51.817Z,13.32
2022-12-23T15:52:21.020Z,13.27
2022-12-23T15:54:56.835Z,13.43
2022-12-23T15:57:28.259Z,13.23
2022-12-23T15:59:58.390Z,13.24
2022-12-23T16:02:59.556Z,13.32
2022-12-23T16:05:28.743Z,13.07
2022-12-23T16:08:10.024Z,13.25
2022-12-23T16:10:38.804Z,13.47
2022-12-23T16:13:17.000Z,13.58
2022-12-23T16:15:45.049Z,13.55
2022-12-23T16:18:20.935Z,13.62
2022-12-23T16:20:52.815Z,13.68
2022-12-23T16:23:21.974Z,13.56
2022-12-23T16:25:52.864Z,13.62
2022-12-23T16:28:26.063Z,13.62
2022-12-23T16:30:57.430Z,13.43
2022-12-23T16:33:35.778Z,13.40
2022-12-23T16:36:17.725Z,13.62
2022-12-23T16:38:46.692Z,13.58
2022-12-23T16:41:15.397Z,13.39
2022-12-23T16:43:51.252Z,13.35
2022-12-23T16:46:22.090Z,13.39
2022-12-23T16:48:55.438Z,13.48
2022-12-23T16:51:27.732Z,13.51
2022-12-23T16:53:58.324Z,13.65
2022-12-23T16:56:33.894Z,13.54
2022-12-23T16:59:03.655Z,13.67
2022-12-23T17:01:36.535Z,13.65
2022-12-23T17:04:07.120Z,13.61
2022-12-23T17:06:35.852Z,13.59
2022-12-23T17:09:07.596Z,13.55
2022-12-23T17:11:40.162Z,13.60
2022-12-23T17:14:15.935Z,13.63
2022-12-23T17:16:46.043Z,13.54
2022-12-23T17:19:15.613Z,13.70
2022-12-23T17:21:46.774Z,13.63
2022-12-23T17:24:22.637Z,13.41
2022-12-23T17:26:51.526Z,13.60
2022-12-23T17:29:19.977Z,13.72
2022-12-23T17:31:50.319Z,13.73
2022-12-23T17:34:23.028Z,13.42
2022-12-23T17:36:51.685Z,13.63
2022-12-23T17:39:22.013Z,13.43
2022-12-23T17:41:51.470Z,13.38
2022-12-23T17:44:19.707Z,13.38
2022-12-23T17:46:51.102Z,13.55
2022-12-23T17:49:27.391Z,13.68
2022-12-23T17:51:55.470Z,13.55
2022-12-23T17:54:26.118Z,13.69
2022-12-23T17:56:53.972Z,13.68
2022-12-23T17:59:21.744Z,13.63
2022-12-23T18:01:51.376Z,13.44
2022-12-23T18:04:19.310Z,13.25
2022-12-23T18:06:48.346Z,13.09
2022-12-23T18:09:16.006Z,13.20
2022-12-23T18:11:46.619Z,13.26
2022-12-23T18:14:17.674Z,13.28
2022-12-23T18:16:45.544Z,13.16
2022-12-23T18:19:18.059Z,13.19
2022-12-23T18:21:46.176Z,13.38
2022-12-23T18:24:15.829Z,13.24
2022-12-23T18:26:44.018Z,13.22
2022-12-23T18:29:12.322Z,13.25
2022-12-23T18:31:51.029Z,13.35
2022-12-23T18:34:20.598Z,13.34
2022-12-23T18:36:48.951Z,13.31
2022-12-23T18:39:18.081Z,13.50
2022-12-23T18:41:50.068Z,13.16
2022-12-23T18:44:19.506Z,13.46
2022-12-23T18:46:49.848Z,13.57
2022-12-23T18:49:20.649Z,13.61
2022-12-23T18:51:48.383Z,13.43
2022-12-23T18:54:17.840Z,13.61
2022-12-23T18:56:46.033Z,13.71
2022-12-23T18:59:24.349Z,13.83
2022-12-23T19:01:57.406Z,13.85
2022-12-23T19:04:25.959Z,13.77
2022-12-23T19:06:54.909Z,13.88
2022-12-23T19:09:24.968Z,13.87
2022-12-23T19:11:54.398Z,13.73
2022-12-23T19:14:22.305Z,13.51
2022-12-23T19:16:52.209Z,13.25
2022-12-23T19:19:20.606Z,13.38
2022-12-23T19:21:48.753Z,13.52
2022-12-23T19:24:16.555Z,13.34
2022-12-23T19:26:46.434Z,13.50
2022-12-23T19:29:14.373Z,13.46
2022-12-23T19:31:42.585Z,13.65
2022-12-23T19:34:15.053Z,13.84
2022-12-23T19:36:43.756Z,13.95
2022-12-23T19:39:12.450Z,13.93
2022-12-23T19:41:40.453Z,13.76
2022-12-23T19:44:10.393Z,13.47
2022-12-23T19:46:38.146Z,13.57
2022-12-23T19:49:06.394Z,13.58
2022-12-23T19:51:34.056Z,13.67
2022-12-23T19:54:02.056Z,13.71
2022-12-23T19:56:30.001Z,13.57
2022-12-23T19:58:59.160Z,13.43
2022-12-23T20:01:28.536Z,13.48
2022-12-23T20:03:56.560Z,13.66
2022-12-23T20:06:27.830Z,13.43
2022-12-23T20:09:00.321Z,13.30
2022-12-23T20:11:29.037Z,13.33
2022-12-23T20:13:56.697Z,13.19
2022-12-23T20:16:25.973Z,12.97
2022-12-23T20:18:56.286Z,12.93
2022-12-23T20:21:24.323Z,12.98
2022-12-23T20:23:52.443Z,12.86
2022-12-23T20:26:20.787Z,12.58
2022-12-23T20:28:48.687Z,12.30
2022-12-23T20:31:20.213Z,12.55
2022-12-23T20:33:49.563Z,12.48
2022-12-23T20:36:21.162Z,12.64
2022-12-23T20:38:49.148Z,12.76
2022-12-23T20:41:19.211Z,13.00
2022-12-23T20:44:02.717Z,13.15
2022-12-23T20:46:35.712Z,13.29
2022-12-23T20:49:03.530Z,13.38
2022-12-23T20:51:34.882Z,13.50
2022-12-23T20:54:05.246Z,13.56
2022-12-23T20:56:32.897Z,13.58
2022-12-23T20:59:01.797Z,13.68
2022-12-23T21:01:31.593Z,13.65
2022-12-23T21:04:03.790Z,13.65
2022-12-23T21:06:34.088Z,13.69
2022-12-23T21:09:04.582Z,13.76
2022-12-23T21:11:38.838Z,13.76
2022-12-23T21:14:07.739Z,13.90
2022-12-23T21:16:37.805Z,13.91
2022-12-23T21:19:06.480Z,13.93
2022-12-23T21:21:38.369Z,13.81
2022-12-23T21:24:06.660Z,14.00
2022-12-23T21:26:35.166Z,13.92
2022-12-23T21:29:06.310Z,14.07
2022-12-23T21:31:37.929Z,14.00
2022-12-23T21:34:06.588Z,14.06
2022-12-23T21:36:38.541Z,14.11
2022-12-23T21:39:10.478Z,13.82
2022-12-23T21:41:40.097Z,14.00
2022-12-23T21:44:10.223Z,13.96
2022-12-23T21:46:39.081Z,13.95
2022-12-23T21:49:06.832Z,14.00
2022-12-23T21:51:40.319Z,14.02
2022-12-23T21:54:10.886Z,13.90
2022-12-23T21:56:40.351Z,13.87
2022-12-23T21:59:13.833Z,13.89
2022-12-23T22:01:42.689Z,13.95
2022-12-23T22:04:11.414Z,13.92
2022-12-23T22:06:42.697Z,13.88
2022-12-23T22:09:13.154Z,13.86
2022-12-23T22:11:41.699Z,13.94
2022-12-23T22:14:13.568Z,13.99
2022-12-23T22:16:41.441Z,13.85
2022-12-23T22:19:11.052Z,13.94
2022-12-23T22:21:40.303Z,13.87
2022-12-23T22:24:08.728Z,13.93
2022-12-23T22:26:38.697Z,14.03
2022-12-23T22:29:06.657Z,14.03
2022-12-23T22:31:38.317Z,13.92
2022-12-23T22:34:08.215Z,14.06
2022-12-23T22:36:36.570Z,13.93
2022-12-23T22:39:07.842Z,13.95
2022-12-23T22:41:35.819Z,13.98
2022-12-23T22:44:03.646Z,14.16
2022-12-23T22:46:31.797Z,14.10
2022-12-23T22:48:59.699Z,14.05
2022-12-23T22:51:29.500Z,14.09
2022-12-23T22:53:59.072Z,14.08
2022-12-23T22:56:28.392Z,14.10
2022-12-23T22:58:56.080Z,14.01
2022-12-23T23:01:26.211Z,14.06
2022-12-23T23:03:56.677Z,14.09
2022-12-23T23:06:26.421Z,13.98
2022-12-23T23:08:54.481Z,14.06
2022-12-23T23:11:23.289Z,13.98
2022-12-23T23:13:52.375Z,13.84
2022-12-23T23:16:20.666Z,13.94
2022-12-23T23:18:48.583Z,13.94
2022-12-23T23:21:17.283Z,13.99
2022-12-23T23:23:45.556Z,13.88
2022-12-23T23:26:14.029Z,13.67
2022-12-23T23:28:43.100Z,13.79
2022-12-23T23:34:00.622Z,13.77
2022-12-23T23:36:28.464Z,13.53
2022-12-23T23:38:56.483Z,13.65
2022-12-23T23:41:24.405Z,13.72
2022-12-23T23:43:52.180Z,13.58
2022-12-23T23:46:21.296Z,13.68
2022-12-23T23:48:49.078Z,13.66
2022-12-23T23:51:16.829Z,13.63
2022-12-23T23:53:44.709Z,13.52
2022-12-23T23:56:12.572Z,13.60
2022-12-23T23:58:40.278Z,13.56
